createdAt,value
2023-05-25T00:01:59.418Z,13.35
2023-05-25T00:04:30.397Z,13.43
2023-05-25T00:07:02.281Z,13.41
2023-05-25T00:09:34.441Z,13.40
2023-05-25T00:12:07.076Z,13.45
2023-05-25T00:14:38.888Z,13.43
2023-05-25T00:17:11.384Z,13.43
2023-05-25T00:19:44.295Z,13.44
2023-05-25T00:22:15.922Z,13.50
2023-05-25T00:24:47.702Z,13.54
2023-05-25T00:27:19.505Z,13.57
2023-05-25T00:29:51.158Z,13.48
2023-05-25T00:32:23.111Z,13.52
2023-05-25T00:34:55.162Z,13.53
2023-05-25T00:37:26.935Z,13.51
2023-05-25T00:39:58.654Z,13.54
2023-05-25T00:42:33.231Z,13.51
2023-05-25T00:45:05.273Z,13.59
2023-05-25T00:47:38.197Z,13.56
2023-05-25T00:50:17.189Z,13.58
2023-05-25T00:52:49.905Z,13.60
2023-05-25T00:55:20.501Z,13.63
2023-05-25T00:57:56.128Z,13.58
2023-05-25T01:00:28.864Z,13.59
2023-05-25T01:03:00.483Z,13.59
2023-05-25T01:05:35.590Z,13.61
2023-05-25T01:08:10.062Z,13.61
2023-05-25T01:10:44.057Z,13.60
2023-05-25T01:13:18.394Z,13.65
2023-05-25T01:15:50.976Z,13.62
2023-05-25T01:18:22.686Z,13.68
2023-05-25T01:21:13.193Z,13.68
2023-05-25T01:23:53.756Z,13.71
2023-05-25T01:26:30.553Z,13.77
2023-05-25T01:29:05.853Z,13.78
2023-05-25T01:31:38.564Z,13.78
2023-05-25T01:34:12.171Z,13.80
2023-05-25T01:36:45.138Z,13.72
2023-05-25T01:39:16.873Z,13.71
2023-05-25T01:41:48.842Z,13.70
2023-05-25T01:44:21.874Z,13.66
2023-05-25T01:46:59.777Z,13.62
2023-05-25T01:49:38.624Z,13.70
2023-05-25T01:52:20.496Z,13.69
2023-05-25T01:54:56.229Z,13.73
2023-05-25T01:57:31.069Z,13.73
2023-05-25T02:00:04.754Z,13.75
2023-05-25T02:02:47.734Z,13.72
2023-05-25T02:05:22.300Z,13.70
2023-05-25T02:07:55.020Z,13.69
2023-05-25T02:10:26.803Z,13.69
2023-05-25T02:12:58.972Z,13.65
2023-05-25T02:15:34.913Z,13.57
2023-05-25T02:18:08.613Z,13.57
2023-05-25T02:20:40.505Z,13.57
2023-05-25T02:23:12.489Z,13.55
2023-05-25T02:25:44.536Z,13.58
2023-05-25T02:28:16.827Z,13.59
2023-05-25T02:30:48.540Z,13.55
2023-05-25T02:33:20.299Z,13.59
2023-05-25T02:35:52.094Z,13.61
2023-05-25T02:38:24.309Z,13.63
2023-05-25T02:40:55.976Z,13.56
2023-05-25T02:43:28.280Z,13.59
2023-05-25T02:45:59.992Z,13.55
2023-05-25T02:48:32.154Z,13.47
2023-05-25T02:51:04.070Z,13.45
2023-05-25T02:53:36.841Z,13.42
2023-05-25T02:56:10.741Z,13.34
2023-05-25T02:58:43.210Z,13.29
2023-05-25T03:01:19.694Z,13.26
2023-05-25T03:03:55.656Z,13.26
2023-05-25T03:06:29.650Z,13.27
2023-05-25T03:09:06.142Z,13.23
2023-05-25T03:11:38.009Z,13.21
2023-05-25T03:14:10.418Z,13.18
2023-05-25T03:16:43.459Z,13.14
2023-05-25T03:19:15.401Z,13.08
2023-05-25T03:21:47.208Z,13.07
2023-05-25T03:24:19.226Z,13.05
2023-05-25T03:26:51.614Z,13.04
2023-05-25T03:29:23.410Z,13.05
2023-05-25T03:31:55.406Z,13.02
2023-05-25T03:34:29.536Z,13.01
2023-05-25T03:37:01.362Z,13.01
2023-05-25T03:39:33.612Z,13.03
2023-05-25T03:42:06.408Z,13.04
2023-05-25T03:44:40.489Z,13.02
2023-05-25T03:47:13.647Z,12.96
2023-05-25T03:49:45.510Z,12.94
2023-05-25T03:52:18.001Z,12.91
2023-05-25T03:54:50.184Z,12.95
2023-05-25T03:57:21.982Z,12.92
2023-05-25T03:59:53.717Z,12.96
2023-05-25T04:02:25.752Z,12.96
2023-05-25T04:05:00.358Z,12.89
2023-05-25T04:07:32.357Z,12.90
2023-05-25T04:10:04.246Z,12.85
2023-05-25T04:12:36.331Z,12.88
2023-05-25T04:15:10.334Z,12.89
2023-05-25T04:17:55.033Z,12.88
2023-05-25T04:20:27.231Z,12.86
2023-05-25T04:22:58.506Z,12.93
2023-05-25T04:25:32.225Z,12.91
2023-05-25T04:28:04.203Z,12.93
2023-05-25T04:30:56.996Z,12.95
2023-05-25T04:33:52.098Z,12.95
2023-05-25T04:36:33.167Z,13.02
2023-05-25T04:39:07.416Z,13.09
2023-05-25T04:41:43.045Z,13.11
2023-05-25T04:44:15.632Z,13.08
2023-05-25T04:46:51.113Z,13.08
2023-05-25T04:49:28.557Z,13.15
2023-05-25T04:52:00.419Z,13.21
2023-05-25T04:54:34.411Z,13.25
2023-05-25T04:57:07.778Z,13.21
2023-05-25T04:59:39.545Z,13.30
2023-05-25T05:02:11.453Z,13.37
2023-05-25T05:04:43.747Z,13.40
2023-05-25T05:07:15.583Z,13.39
2023-05-25T05:09:47.805Z,13.41
2023-05-25T05:12:19.638Z,13.41
2023-05-25T05:14:55.994Z,13.44
2023-05-25T05:17:30.598Z,13.49
2023-05-25T05:20:02.591Z,13.54
2023-05-25T05:22:35.408Z,13.53
2023-05-25T05:25:10.957Z,13.52
2023-05-25T05:27:42.856Z,13.58
2023-05-25T05:30:22.327Z,13.61
2023-05-25T05:32:54.190Z,13.70
2023-05-25T05:35:28.084Z,13.75
2023-05-25T05:38:11.150Z,13.75
2023-05-25T05:40:43.107Z,13.76
2023-05-25T05:43:15.427Z,13.81
2023-05-25T05:45:47.792Z,13.93
2023-05-25T05:48:19.856Z,13.95
2023-05-25T05:50:52.443Z,13.98
2023-05-25T05:53:24.547Z,14.01
2023-05-25T05:55:59.175Z,14.07
2023-05-25T05:58:32.522Z,14.16
2023-05-25T06:01:06.340Z,14.19
2023-05-25T06:03:38.064Z,14.21
2023-05-25T06:06:10.189Z,14.25
2023-05-25T06:08:43.337Z,14.28
2023-05-25T06:11:15.399Z,14.36
2023-05-25T06:13:48.281Z,14.40
2023-05-25T06:16:20.769Z,14.46
2023-05-25T06:18:51.285Z,14.53
2023-05-25T06:21:23.205Z,14.60
2023-05-25T06:23:57.800Z,14.64
2023-05-25T06:26:29.623Z,14.69
2023-05-25T06:29:01.863Z,14.70
2023-05-25T06:31:33.796Z,14.81
2023-05-25T06:34:05.518Z,14.87
2023-05-25T06:36:37.297Z,14.95
2023-05-25T06:39:09.526Z,15.00
2023-05-25T06:41:42.126Z,15.00
2023-05-25T06:44:13.848Z,15.03
2023-05-25T06:46:50.897Z,15.10
2023-05-25T06:49:22.793Z,15.17
2023-05-25T06:51:54.566Z,15.23
2023-05-25T06:54:26.816Z,15.28
2023-05-25T06:56:58.537Z,15.32
2023-05-25T06:59:31.067Z,15.40
2023-05-25T07:02:02.895Z,15.47
2023-05-25T07:04:34.755Z,15.48
2023-05-25T07:07:07.696Z,15.55
2023-05-25T07:09:39.799Z,15.62
2023-05-25T07:12:11.658Z,15.64
2023-05-25T07:14:43.767Z,15.64
2023-05-25T07:17:15.633Z,15.69
2023-05-25T07:19:48.720Z,15.77
2023-05-25T07:22:20.548Z,15.82
2023-05-25T07:24:52.575Z,15.90
2023-05-25T07:27:25.553Z,15.89
2023-05-25T07:29:57.485Z,15.98
2023-05-25T07:32:29.328Z,16.02
2023-05-25T07:35:01.193Z,16.05
2023-05-25T07:37:32.995Z,16.05
2023-05-25T07:40:06.171Z,16.12
2023-05-25T07:42:38.014Z,16.17
2023-05-25T07:45:12.439Z,16.22
2023-05-25T07:47:44.231Z,16.30
2023-05-25T07:50:16.634Z,16.35
2023-05-25T07:52:49.079Z,16.34
2023-05-25T07:55:21.260Z,16.41
2023-05-25T07:57:53.132Z,16.50
2023-05-25T08:00:25.398Z,16.61
2023-05-25T08:02:58.340Z,16.70
2023-05-25T08:05:30.474Z,16.71
2023-05-25T08:08:02.421Z,16.78
2023-05-25T08:10:34.862Z,16.83
2023-05-25T08:13:06.941Z,16.88
2023-05-25T08:15:38.750Z,16.96
2023-05-25T08:18:10.514Z,17.07
2023-05-25T08:20:42.690Z,17.08
2023-05-25T08:23:14.816Z,17.09
2023-05-25T08:25:46.902Z,17.15
2023-05-25T08:28:19.180Z,17.27
2023-05-25T08:30:51.082Z,17.33
2023-05-25T08:33:25.147Z,17.36
2023-05-25T08:35:59.318Z,17.45
2023-05-25T08:38:31.804Z,17.49
2023-05-25T08:41:07.308Z,17.55
2023-05-25T08:43:39.176Z,17.47
2023-05-25T08:46:11.309Z,17.49
2023-05-25T08:48:44.915Z,17.56
2023-05-25T08:51:18.894Z,17.63
2023-05-25T08:53:51.727Z,17.65
2023-05-25T08:56:28.119Z,17.71
2023-05-25T08:59:10.085Z,17.76
2023-05-25T09:01:47.100Z,17.81
2023-05-25T09:04:19.587Z,17.87
2023-05-25T09:07:05.691Z,17.94
2023-05-25T09:09:42.904Z,18.06
2023-05-25T09:12:15.184Z,18.05
2023-05-25T09:14:48.061Z,17.99
2023-05-25T09:17:21.169Z,18.02
2023-05-25T09:19:51.769Z,18.14
2023-05-25T09:22:23.674Z,18.35
2023-05-25T09:24:56.025Z,18.35
2023-05-25T09:27:28.398Z,18.38
2023-05-25T09:30:01.902Z,18.45
2023-05-25T09:32:33.809Z,18.47
2023-05-25T09:35:11.965Z,18.44
2023-05-25T09:37:45.721Z,18.47
2023-05-25T09:40:18.309Z,18.66
2023-05-25T09:42:51.011Z,18.67
2023-05-25T09:45:21.451Z,18.69
2023-05-25T09:47:57.001Z,18.74
2023-05-25T09:50:30.096Z,18.86
2023-05-25T09:53:03.525Z,18.91
2023-05-25T09:55:51.524Z,18.89
2023-05-25T09:58:27.517Z,18.86
2023-05-25T10:00:59.387Z,18.91
2023-05-25T10:03:31.451Z,18.93
2023-05-25T10:06:04.463Z,18.87
2023-05-25T10:08:36.383Z,19.01
2023-05-25T10:11:08.773Z,19.18
2023-05-25T10:13:41.658Z,19.15
2023-05-25T10:16:17.660Z,19.15
2023-05-25T10:18:56.326Z,19.11
2023-05-25T10:21:30.010Z,19.17
2023-05-25T10:24:07.543Z,19.31
2023-05-25T10:26:48.446Z,19.27
2023-05-25T10:29:21.496Z,19.39
2023-05-25T10:31:54.437Z,19.56
2023-05-25T10:34:27.085Z,19.47
2023-05-25T10:37:00.288Z,19.42
2023-05-25T10:39:33.133Z,19.55
2023-05-25T10:42:06.734Z,19.66
2023-05-25T10:44:39.259Z,19.89
2023-05-25T10:47:10.293Z,19.89
2023-05-25T10:49:56.381Z,19.84
2023-05-25T10:52:31.884Z,19.70
2023-05-25T10:55:05.378Z,19.65
2023-05-25T10:57:37.185Z,19.73
2023-05-25T11:00:14.676Z,19.84
2023-05-25T11:02:55.732Z,19.95
2023-05-25T11:05:36.652Z,19.90
2023-05-25T11:08:12.109Z,19.81
2023-05-25T11:11:00.655Z,20.05
2023-05-25T11:13:45.240Z,20.37
2023-05-25T11:16:22.154Z,20.52
2023-05-25T11:18:57.706Z,20.72
2023-05-25T11:21:46.245Z,21.04
2023-05-25T11:24:21.363Z,21.14
2023-05-25T11:26:58.577Z,21.14
2023-05-25T11:29:36.167Z,21.08
2023-05-25T11:32:13.222Z,21.26
2023-05-25T11:34:46.579Z,21.17
2023-05-25T11:37:21.616Z,21.02
2023-05-25T11:39:54.044Z,21.02
2023-05-25T11:42:27.798Z,21.14
2023-05-25T11:45:02.835Z,21.11
2023-05-25T11:47:35.800Z,21.09
2023-05-25T11:50:16.054Z,21.16
2023-05-25T11:52:48.026Z,21.28
2023-05-25T11:55:19.893Z,21.54
2023-05-25T11:57:58.751Z,21.84
2023-05-25T12:00:31.494Z,21.84
2023-05-25T12:03:03.857Z,21.80
2023-05-25T12:05:42.209Z,21.70
2023-05-25T12:08:14.160Z,21.60
2023-05-25T12:10:55.795Z,21.61
2023-05-25T12:13:27.963Z,21.52
2023-05-25T12:16:00.500Z,21.73
2023-05-25T12:18:32.992Z,21.78
2023-05-25T12:21:08.210Z,21.77
2023-05-25T12:23:40.236Z,21.78
2023-05-25T12:26:13.897Z,21.67
2023-05-25T12:29:02.860Z,21.58
2023-05-25T12:31:35.748Z,21.69
2023-05-25T12:34:12.716Z,21.76
2023-05-25T12:36:47.921Z,21.91
2023-05-25T12:39:32.456Z,21.94
2023-05-25T12:42:04.949Z,22.08
2023-05-25T12:44:38.059Z,22.12
2023-05-25T12:47:19.606Z,21.92
2023-05-25T12:49:53.365Z,21.93
2023-05-25T12:52:38.619Z,22.04
2023-05-25T12:55:27.162Z,21.82
2023-05-25T12:58:01.584Z,21.96
2023-05-25T13:00:37.716Z,22.01
2023-05-25T13:03:09.847Z,21.93
2023-05-25T13:05:42.375Z,21.95
2023-05-25T13:08:15.689Z,22.01
2023-05-25T13:10:51.452Z,22.09
2023-05-25T13:13:23.383Z,22.09
2023-05-25T13:15:55.478Z,22.16
2023-05-25T13:18:27.499Z,22.25
2023-05-25T13:20:59.684Z,22.28
2023-05-25T13:23:32.116Z,22.45
2023-05-25T13:26:04.259Z,22.43
2023-05-25T13:28:36.746Z,22.28
2023-05-25T13:31:08.554Z,22.35
2023-05-25T13:33:40.444Z,22.31
2023-05-25T13:36:12.556Z,22.36
2023-05-25T13:38:45.190Z,22.34
2023-05-25T13:41:16.576Z,22.43
2023-05-25T13:43:48.896Z,22.65
2023-05-25T13:46:33.641Z,22.78
2023-05-25T13:49:06.622Z,22.81
2023-05-25T13:51:38.630Z,22.95
2023-05-25T13:54:12.871Z,22.98
2023-05-25T13:56:44.971Z,23.12
2023-05-25T13:59:16.824Z,23.11
2023-05-25T14:01:48.786Z,23.18
2023-05-25T14:04:21.167Z,23.20
2023-05-25T14:06:53.040Z,23.15
2023-05-25T14:09:24.804Z,23.24
2023-05-25T14:11:57.137Z,23.43
2023-05-25T14:14:32.153Z,23.54
2023-05-25T14:17:04.885Z,23.64
2023-05-25T14:19:37.090Z,23.78
2023-05-25T14:22:13.775Z,23.82
2023-05-25T14:24:46.593Z,23.93
2023-05-25T14:27:21.240Z,24.13
2023-05-25T14:29:53.752Z,24.18
2023-05-25T14:32:25.893Z,24.37
2023-05-25T14:34:58.306Z,24.27
2023-05-25T14:37:30.299Z,24.24
2023-05-25T14:40:02.128Z,24.24
2023-05-25T14:42:34.139Z,24.41
2023-05-25T14:45:08.690Z,24.59
2023-05-25T14:47:42.966Z,24.72
2023-05-25T14:50:14.972Z,24.95
2023-05-25T14:52:47.093Z,25.19
2023-05-25T14:55:18.950Z,25.29
2023-05-25T14:57:50.780Z,25.36
2023-05-25T15:00:23.038Z,25.39
2023-05-25T15:02:54.908Z,25.50
2023-05-25T15:05:26.829Z,25.56
2023-05-25T15:07:59.034Z,25.74
2023-05-25T15:10:30.755Z,25.92
2023-05-25T15:13:02.566Z,25.78
2023-05-25T15:15:34.926Z,25.75
2023-05-25T15:18:07.352Z,25.74
2023-05-25T15:20:42.041Z,25.62
2023-05-25T15:23:14.931Z,25.52
2023-05-25T15:25:45.208Z,25.48
2023-05-25T15:28:17.983Z,25.59
2023-05-25T15:30:50.468Z,25.64
2023-05-25T15:33:22.089Z,25.78
2023-05-25T15:35:56.034Z,25.90
2023-05-25T15:38:28.584Z,25.84
2023-05-25T15:41:00.562Z,25.83
2023-05-25T15:43:32.424Z,25.62
2023-05-25T15:46:04.470Z,25.71
2023-05-25T15:48:36.450Z,25.59
2023-05-25T15:51:08.431Z,25.62
2023-05-25T15:53:41.743Z,25.70
2023-05-25T15:56:14.171Z,25.47
2023-05-25T15:58:48.742Z,25.46
2023-05-25T16:01:20.603Z,25.44
2023-05-25T16:03:52.500Z,25.42
2023-05-25T16:06:25.195Z,25.61
2023-05-25T16:08:59.882Z,25.53
2023-05-25T16:11:34.357Z,25.69
2023-05-25T16:14:06.225Z,25.71
2023-05-25T16:16:38.512Z,25.60
2023-05-25T16:19:09.356Z,25.59
2023-05-25T16:21:42.657Z,25.81
2023-05-25T16:24:14.588Z,25.83
2023-05-25T16:26:46.457Z,25.96
2023-05-25T16:29:18.708Z,26.15
2023-05-25T16:31:50.987Z,26.13
2023-05-25T16:34:23.151Z,26.41
2023-05-25T16:36:54.944Z,26.44
2023-05-25T16:39:27.152Z,26.70
2023-05-25T16:41:59.187Z,26.92
2023-05-25T16:44:31.652Z,27.28
2023-05-25T16:47:03.462Z,27.25
2023-05-25T16:49:35.537Z,27.28
2023-05-25T16:52:08.077Z,27.06
2023-05-25T16:54:40.355Z,26.89
2023-05-25T16:57:12.518Z,26.35
2023-05-25T16:59:43.145Z,25.77
2023-05-25T17:02:14.851Z,25.14
2023-05-25T17:04:47.282Z,24.41
2023-05-25T17:07:19.701Z,24.02
2023-05-25T17:09:51.806Z,23.81
2023-05-25T17:12:24.176Z,23.53
2023-05-25T17:14:56.408Z,23.48
2023-05-25T17:17:28.911Z,23.39
2023-05-25T17:20:01.342Z,23.17
2023-05-25T17:22:33.968Z,22.98
2023-05-25T17:25:07.407Z,22.98
2023-05-25T17:27:39.210Z,22.98
2023-05-25T17:30:14.070Z,22.90
2023-05-25T17:32:46.087Z,22.85
2023-05-25T17:35:18.844Z,22.81
2023-05-25T17:37:50.952Z,22.69
2023-05-25T17:40:23.059Z,22.58
2023-05-25T17:42:55.415Z,22.44
2023-05-25T17:45:27.919Z,22.32
2023-05-25T17:48:01.194Z,22.22
2023-05-25T17:50:33.455Z,22.17
2023-05-25T17:53:05.398Z,21.99
2023-05-25T17:55:37.545Z,21.93
2023-05-25T17:58:09.391Z,21.89
2023-05-25T18:00:40.690Z,21.83
2023-05-25T18:03:12.591Z,21.71
2023-05-25T18:05:45.109Z,21.60
2023-05-25T18:08:17.229Z,21.53
2023-05-25T18:10:50.296Z,21.54
2023-05-25T18:13:22.672Z,21.47
2023-05-25T18:15:54.713Z,21.32
2023-05-25T18:18:29.116Z,21.24
2023-05-25T18:21:00.963Z,21.20
2023-05-25T18:23:32.853Z,21.13
2023-05-25T18:26:05.782Z,21.08
2023-05-25T18:28:37.890Z,20.93
2023-05-25T18:31:09.779Z,20.85
2023-05-25T18:33:42.207Z,20.73
2023-05-25T18:36:15.244Z,20.65
2023-05-25T18:38:47.544Z,20.55
2023-05-25T18:41:21.455Z,20.43
2023-05-25T18:43:55.432Z,20.33
2023-05-25T18:46:28.587Z,20.28
2023-05-25T18:49:00.778Z,20.19
2023-05-25T18:51:33.804Z,20.09
2023-05-25T18:54:05.929Z,19.99
2023-05-25T18:56:39.413Z,20.00
2023-05-25T18:59:10.080Z,19.89
2023-05-25T19:01:42.499Z,19.78
2023-05-25T19:04:15.873Z,19.73
2023-05-25T19:06:48.713Z,19.63
2023-05-25T19:09:22.041Z,19.57
2023-05-25T19:11:54.357Z,19.53
2023-05-25T19:14:27.402Z,19.51
2023-05-25T19:16:59.898Z,19.48
2023-05-25T19:19:32.431Z,19.37
2023-05-25T19:22:06.559Z,19.32
2023-05-25T19:24:42.300Z,19.24
2023-05-25T19:27:15.559Z,19.19
2023-05-25T19:29:47.873Z,19.13
2023-05-25T19:32:21.470Z,19.04
2023-05-25T19:34:55.090Z,18.97
2023-05-25T19:37:27.975Z,18.88
2023-05-25T19:40:00.208Z,18.82
2023-05-25T19:42:33.559Z,18.79
2023-05-25T19:45:06.933Z,18.72
2023-05-25T19:47:39.422Z,18.69
2023-05-25T19:50:12.029Z,18.64
2023-05-25T19:52:44.281Z,18.61
2023-05-25T19:55:15.258Z,18.54
2023-05-25T19:57:47.362Z,18.50
2023-05-25T20:00:25.975Z,18.46
2023-05-25T20:03:00.180Z,18.39
2023-05-25T20:05:33.193Z,18.35
2023-05-25T20:08:06.843Z,18.30
2023-05-25T20:10:40.608Z,18.28
2023-05-25T20:13:11.334Z,18.29
2023-05-25T20:15:44.144Z,18.30
2023-05-25T20:18:18.403Z,18.26
2023-05-25T20:20:50.906Z,18.21
2023-05-25T20:23:23.049Z,18.16
2023-05-25T20:25:55.004Z,18.08
2023-05-25T20:28:27.754Z,18.03
2023-05-25T20:30:59.903Z,18.00
2023-05-25T20:33:32.076Z,17.92
2023-05-25T20:36:04.011Z,17.90
2023-05-25T20:38:36.109Z,17.80
2023-05-25T20:41:08.367Z,17.77
2023-05-25T20:43:40.837Z,17.66
2023-05-25T20:46:14.237Z,17.64
2023-05-25T20:48:47.674Z,17.60
2023-05-25T20:51:19.403Z,17.58
2023-05-25T20:53:51.366Z,17.51
2023-05-25T20:56:22.857Z,17.43
2023-05-25T20:58:54.741Z,17.34
2023-05-25T21:01:26.559Z,17.27
2023-05-25T21:03:59.420Z,17.30
2023-05-25T21:06:32.409Z,17.29
2023-05-25T21:09:03.210Z,17.34
2023-05-25T21:11:36.107Z,17.22
2023-05-25T21:14:08.292Z,17.18
2023-05-25T21:16:40.207Z,17.23
2023-05-25T21:19:12.603Z,17.24
2023-05-25T21:21:44.769Z,17.27
2023-05-25T21:24:16.936Z,17.28
2023-05-25T21:26:48.791Z,17.31
2023-05-25T21:29:21.575Z,17.28
2023-05-25T21:31:53.447Z,17.18
2023-05-25T21:34:25.435Z,17.06
2023-05-25T21:36:58.086Z,17.05
2023-05-25T21:39:29.853Z,17.06
2023-05-25T21:42:02.347Z,17.06
2023-05-25T21:44:34.157Z,17.07
2023-05-25T21:47:06.076Z,17.08
2023-05-25T21:49:37.856Z,17.10
2023-05-25T21:52:23.290Z,17.00
2023-05-25T21:54:55.459Z,16.76
2023-05-25T21:57:27.139Z,16.65
2023-05-25T21:59:58.887Z,16.65
2023-05-25T22:02:31.215Z,16.72
2023-05-25T22:05:06.476Z,16.70
2023-05-25T22:07:38.146Z,16.50
2023-05-25T22:10:11.798Z,16.37
2023-05-25T22:12:44.288Z,16.32
2023-05-25T22:15:15.976Z,16.26
2023-05-25T22:17:47.604Z,16.14
2023-05-25T22:20:20.243Z,16.14
2023-05-25T22:22:52.152Z,16.13
2023-05-25T22:25:24.319Z,16.08
2023-05-25T22:27:56.492Z,15.99
2023-05-25T22:30:28.304Z,15.91
2023-05-25T22:33:00.113Z,15.88
2023-05-25T22:35:32.433Z,15.79
2023-05-25T22:38:04.458Z,15.76
2023-05-25T22:40:36.170Z,15.73
2023-05-25T22:43:12.814Z,15.67
2023-05-25T22:45:45.263Z,15.61
2023-05-25T22:48:15.803Z,15.61
2023-05-25T22:50:47.577Z,15.60
2023-05-25T22:53:19.318Z,15.50
2023-05-25T22:55:51.263Z,15.46
2023-05-25T22:58:23.648Z,15.40
2023-05-25T23:00:56.227Z,15.33
2023-05-25T23:03:28.531Z,15.26
2023-05-25T23:06:00.520Z,15.15
2023-05-25T23:08:32.268Z,15.09
2023-05-25T23:11:04.013Z,15.03
2023-05-25T23:13:35.923Z,15.07
2023-05-25T23:16:08.309Z,15.03
2023-05-25T23:18:40.070Z,14.91
2023-05-25T23:21:11.872Z,14.90
2023-05-25T23:23:43.704Z,14.86
2023-05-25T23:26:15.621Z,14.83
2023-05-25T23:28:47.507Z,14.76
2023-05-25T23:31:19.451Z,14.77
2023-05-25T23:33:51.165Z,14.73
2023-05-25T23:36:26.248Z,14.76
2023-05-25T23:38:58.185Z,14.75
2023-05-25T23:41:29.903Z,14.75
2023-05-25T23:44:01.948Z,14.75
2023-05-25T23:46:33.679Z,14.76
2023-05-25T23:49:05.527Z,14.76
2023-05-25T23:51:37.459Z,14.77
2023-05-25T23:54:09.156Z,14.71
2023-05-25T23:56:40.904Z,14.72
2023-05-25T23:59:15.348Z,14.70
